Time,TemperatureF,DewpointF,PressureIn,WindDirection,WindDirectionDegrees,WindSpeedMPH,WindSpeedGustMPH,Humidity,HourlyPrecipIn,Conditions,Clouds,dailyrainin,SolarRadiationWatts/m^2,SoftwareType,DateUTC
2013-09-23 00:01:00,45.0,44.0,-100.00,SSW,203,2.0,5.0,95,0.00,,,0.00,0.000000,,2013-09-23 06:01:00,
2013-09-23 00:22:00,45.0,44.0,-100.00,SSW,203,2.0,5.0,95,0.00,,,0.00,0.000000,,2013-09-23 06:22:00,
2013-09-23 00:32:00,45.0,44.0,-100.00,SSW,203,2.0,5.0,95,0.00,,,0.00,0.000000,,2013-09-23 06:32:00,
2013-09-23 00:42:00,45.0,44.0,-100.00,SSW,203,2.0,5.0,95,0.00,,,0.00,0.000000,,2013-09-23 06:42:00,
2013-09-23 00:52:00,45.0,44.0,-100.00,SSW,203,2.0,5.0,95,0.00,,,0.00,0.000000,,2013-09-23 06:52:00,
2013-09-23 01:01:00,45.0,44.0,-100.00,SSW,208,2.0,4.0,96,0.00,,,0.00,0.000000,,2013-09-23 07:01:00,
2013-09-23 01:42:00,45.0,44.0,-100.00,SSW,208,2.0,4.0,96,0.00,,,0.00,0.000000,,2013-09-23 07:42:00,
2013-09-23 01:52:00,45.0,44.0,-100.00,SSW,208,2.0,4.0,96,0.00,,,0.00,0.000000,,2013-09-23 07:52:00,
2013-09-23 02:01:00,47.0,45.0,-100.00,SSW,206,3.0,9.0,94,0.00,,,0.00,0.000000,,2013-09-23 08:01:00,
2013-09-23 02:23:00,47.0,45.0,-100.00,SSW,206,3.0,9.0,94,0.00,,,0.00,0.000000,,2013-09-23 08:23:00,
2013-09-23 02:32:00,47.0,45.0,-100.00,SSW,206,3.0,9.0,94,0.00,,,0.00,0.000000,,2013-09-23 08:32:00,
2013-09-23 02:42:00,47.0,45.0,-100.00,SSW,206,3.0,9.0,94,0.00,,,0.00,0.000000,,2013-09-23 08:42:00,
2013-09-23 02:52:00,47.0,45.0,-100.00,SSW,206,3.0,9.0,94,0.00,,,0.00,0.000000,,2013-09-23 08:52:00,
2013-09-23 03:01:00,46.0,43.0,-100.00,SW,235,2.0,5.0,90,0.00,,,0.00,0.000000,,2013-09-23 09:01:00,
2013-09-23 03:43:00,46.0,43.0,-100.00,SW,235,2.0,5.0,90,0.00,,,0.00,0.000000,,2013-09-23 09:43:00,
2013-09-23 03:53:00,46.0,43.0,-100.00,SW,235,2.0,5.0,90,0.00,,,0.00,0.000000,,2013-09-23 09:53:00,
2013-09-23 04:01:00,47.0,46.0,-100.00,WSW,256,3.0,6.0,95,0.00,,,0.00,0.000000,,2013-09-23 10:01:00,
2013-09-23 04:42:00,47.0,46.0,-100.00,WSW,256,3.0,6.0,95,0.00,,,0.00,0.000000,,2013-09-23 10:42:00,
2013-09-23 04:52:00,47.0,46.0,-100.00,WSW,256,3.0,6.0,95,0.00,,,0.00,0.000000,,2013-09-23 10:52:00,
2013-09-23 05:01:00,46.0,44.0,-100.00,WNW,287,2.0,6.0,93,0.00,,,0.00,0.000000,,2013-09-23 11:01:00,
2013-09-23 05:42:00,46.0,44.0,-100.00,WNW,287,2.0,6.0,93,0.00,,,0.00,0.000000,,2013-09-23 11:42:00,
2013-09-23 05:52:00,46.0,44.0,-100.00,WNW,287,2.0,6.0,93,0.00,,,0.00,0.000000,,2013-09-23 11:52:00,
2013-09-23 06:01:00,43.0,41.0,-100.00,NW,309,2.0,7.0,94,0.00,,,0.00,0.000000,,2013-09-23 12:01:00,
2013-09-23 06:42:00,43.0,41.0,-100.00,NW,309,2.0,7.0,94,0.00,,,0.00,0.000000,,2013-09-23 12:42:00,
2013-09-23 06:52:00,43.0,41.0,-100.00,NW,309,2.0,7.0,94,0.00,,,0.00,0.000000,,2013-09-23 12:52:00,
2013-09-23 07:01:00,42.0,41.0,-100.00,SW,214,2.0,4.0,97,0.00,,,0.00,0.000000,,2013-09-23 13:01:00,
2013-09-23 07:22:00,42.0,41.0,-100.00,SW,214,2.0,4.0,97,0.00,,,0.00,0.000000,,2013-09-23 13:22:00,
2013-09-23 07:32:00,42.0,41.0,-100.00,SW,214,2.0,4.0,97,0.00,,,0.00,0.000000,,2013-09-23 13:32:00,
2013-09-23 07:42:00,42.0,41.0,-100.00,SW,214,2.0,4.0,97,0.00,,,0.00,0.000000,,2013-09-23 13:42:00,
2013-09-23 07:52:00,42.0,41.0,-100.00,SW,214,2.0,4.0,97,0.00,,,0.00,0.000000,,2013-09-23 13:52:00,
2013-09-23 08:01:00,41.0,40.0,-100.00,SW,219,2.0,4.0,97,0.00,,,0.00,7.000000,,2013-09-23 14:01:00,
2013-09-23 08:43:00,41.0,40.0,-100.00,SW,219,2.0,4.0,97,0.00,,,0.00,7.000000,,2013-09-23 14:43:00,
2013-09-23 08:52:00,41.0,40.0,-100.00,SW,219,2.0,4.0,97,0.00,,,0.00,7.000000,,2013-09-23 14:52:00,
2013-09-23 09:01:00,48.0,44.0,-100.00,SSW,205,0.0,4.0,85,0.00,,,0.00,107.000000,,2013-09-23 15:01:00,
2013-09-23 09:43:00,48.0,44.0,-100.00,SSW,205,0.0,4.0,85,0.00,,,0.00,107.000000,,2013-09-23 15:43:00,
2013-09-23 09:54:00,48.0,44.0,-100.00,SSW,205,0.0,4.0,85,0.00,,,0.00,107.000000,,2013-09-23 15:54:00,
2013-09-23 10:01:00,49.0,42.0,-100.00,SSE,150,2.0,5.0,77,0.00,,,0.00,114.000000,,2013-09-23 16:01:00,
2013-09-23 10:43:00,49.0,42.0,-100.00,SSE,150,2.0,5.0,77,0.00,,,0.00,114.000000,,2013-09-23 16:43:00,
2013-09-23 10:53:00,49.0,42.0,-100.00,SSE,150,2.0,5.0,77,0.00,,,0.00,114.000000,,2013-09-23 16:53:00,
2013-09-23 11:01:00,55.0,44.0,-100.00,East,97,4.0,11.0,66,0.00,,,0.00,382.000000,,2013-09-23 17:01:00,
2013-09-23 11:42:00,55.0,44.0,-100.00,East,97,4.0,11.0,66,0.00,,,0.00,382.000000,,2013-09-23 17:42:00,
2013-09-23 11:52:00,55.0,44.0,-100.00,East,97,4.0,11.0,66,0.00,,,0.00,382.000000,,2013-09-23 17:52:00,
2013-09-23 12:01:00,53.0,46.0,-100.00,SE,136,4.0,11.0,76,0.00,,,0.00,241.000000,,2013-09-23 18:01:00,
2013-09-23 12:42:00,53.0,46.0,-100.00,SE,136,4.0,11.0,76,0.00,,,0.00,241.000000,,2013-09-23 18:42:00,
2013-09-23 12:52:00,53.0,46.0,-100.00,SE,136,4.0,11.0,76,0.00,,,0.00,241.000000,,2013-09-23 18:52:00,
2013-09-23 13:01:00,60.0,42.0,-100.00,SSE,160,6.0,15.0,51,0.00,,,0.00,595.000000,,2013-09-23 19:01:00,
2013-09-23 13:42:00,60.0,42.0,-100.00,SSE,160,6.0,15.0,51,0.00,,,0.00,595.000000,,2013-09-23 19:42:00,
2013-09-23 13:53:00,60.0,42.0,-100.00,SSE,160,6.0,15.0,51,0.00,,,0.00,595.000000,,2013-09-23 19:53:00,
2013-09-23 14:01:00,62.0,40.0,-100.00,South,171,5.0,15.0,45,0.00,,,0.00,765.000000,,2013-09-23 20:01:00,
2013-09-23 14:42:00,62.0,40.0,-100.00,South,171,5.0,15.0,45,0.00,,,0.00,765.000000,,2013-09-23 20:42:00,
2013-09-23 14:52:00,62.0,40.0,-100.00,South,171,5.0,15.0,45,0.00,,,0.00,765.000000,,2013-09-23 20:52:00,
2013-09-23 15:01:00,54.0,35.0,-100.00,SE,127,7.0,16.0,49,0.00,,,0.00,422.000000,,2013-09-23 21:01:00,
2013-09-23 15:44:00,54.0,35.0,-100.00,SE,127,7.0,16.0,49,0.00,,,0.00,422.000000,,2013-09-23 21:44:00,
2013-09-23 15:54:00,54.0,35.0,-100.00,SE,127,7.0,16.0,49,0.00,,,0.00,422.000000,,2013-09-23 21:54:00,
2013-09-23 16:01:00,59.0,36.0,-100.00,NNW,343,3.0,12.0,42,0.00,,,0.00,416.000000,,2013-09-23 22:01:00,
2013-09-23 16:43:00,59.0,36.0,-100.00,NNW,343,3.0,12.0,42,0.00,,,0.00,416.000000,,2013-09-23 22:43:00,
2013-09-23 16:54:00,59.0,36.0,-100.00,NNW,343,3.0,12.0,42,0.00,,,0.00,416.000000,,2013-09-23 22:54:00,
2013-09-23 17:01:00,58.0,38.0,-100.00,North,354,4.0,15.0,47,0.00,,,0.00,336.000000,,2013-09-23 23:01:00,
2013-09-23 17:42:00,58.0,38.0,-100.00,North,354,4.0,15.0,47,0.00,,,0.00,336.000000,,2013-09-23 23:42:00,
2013-09-23 17:54:00,58.0,38.0,-100.00,North,354,4.0,15.0,47,0.00,,,0.00,336.000000,,2013-09-23 23:54:00,
2013-09-23 18:01:00,57.0,38.0,-100.00,North,7,3.0,9.0,48,0.00,,,0.00,181.000000,,2013-09-24 00:01:00,
2013-09-23 18:22:00,57.0,38.0,-100.00,North,7,3.0,9.0,48,0.00,,,0.00,181.000000,,2013-09-24 00:22:00,
2013-09-23 18:32:00,57.0,38.0,-100.00,North,7,3.0,9.0,48,0.00,,,0.00,181.000000,,2013-09-24 00:32:00,
2013-09-23 18:43:00,57.0,38.0,-100.00,North,7,3.0,9.0,48,0.00,,,0.00,181.000000,,2013-09-24 00:43:00,
2013-09-23 18:52:00,57.0,38.0,-100.00,North,7,3.0,9.0,48,0.00,,,0.00,181.000000,,2013-09-24 00:52:00,
2013-09-23 19:01:00,54.0,36.0,-100.00,NNW,335,2.0,6.0,51,0.00,,,0.00,65.000000,,2013-09-24 01:01:00,
2013-09-23 19:22:00,54.0,36.0,-100.00,NNW,335,2.0,6.0,51,0.00,,,0.00,65.000000,,2013-09-24 01:22:00,
2013-09-23 19:32:00,54.0,36.0,-100.00,NNW,335,2.0,6.0,51,0.00,,,0.00,65.000000,,2013-09-24 01:32:00,
2013-09-23 19:43:00,54.0,36.0,-100.00,NNW,335,2.0,6.0,51,0.00,,,0.00,65.000000,,2013-09-24 01:43:00,
2013-09-23 19:52:00,54.0,36.0,-100.00,NNW,335,2.0,6.0,51,0.00,,,0.00,65.000000,,2013-09-24 01:52:00,
2013-09-23 20:01:00,52.0,36.0,-100.00,WSW,245,1.0,4.0,55,0.00,,,-99.99,7.000000,,2013-09-24 02:01:00,
2013-09-23 20:42:00,52.0,36.0,-100.00,WSW,245,1.0,4.0,55,0.00,,,-99.99,7.000000,,2013-09-24 02:42:00,
2013-09-23 20:52:00,52.0,36.0,-100.00,WSW,245,1.0,4.0,55,0.00,,,-99.99,7.000000,,2013-09-24 02:52:00,
2013-09-23 21:01:00,51.0,40.0,-100.00,SW,224,0.0,3.0,67,0.00,,,0.00,0.000000,,2013-09-24 03:01:00,
2013-09-23 21:44:00,51.0,40.0,-100.00,SW,224,0.0,3.0,67,0.00,,,0.00,0.000000,,2013-09-24 03:44:00,
2013-09-23 21:54:00,51.0,40.0,-100.00,SW,224,0.0,3.0,67,0.00,,,0.00,0.000000,,2013-09-24 03:54:00,
2013-09-23 22:01:00,48.0,38.0,-100.00,SW,225,2.0,4.0,69,0.00,,,0.00,0.000000,,2013-09-24 04:01:00,
2013-09-23 22:24:00,48.0,38.0,-100.00,SW,225,2.0,4.0,69,0.00,,,0.00,0.000000,,2013-09-24 04:24:00,
2013-09-23 22:34:00,48.0,38.0,-100.00,SW,225,2.0,4.0,69,0.00,,,0.00,0.000000,,2013-09-24 04:34:00,
2013-09-23 22:44:00,48.0,38.0,-100.00,SW,225,2.0,4.0,69,0.00,,,0.00,0.000000,,2013-09-24 04:44:00,
2013-09-23 22:54:00,48.0,38.0,-100.00,SW,225,2.0,4.0,69,0.00,,,0.00,0.000000,,2013-09-24 04:54:00,
2013-09-23 23:01:00,46.0,37.0,-100.00,SW,220,2.0,4.0,72,0.00,,,0.00,0.000000,,2013-09-24 05:01:00,
2013-09-23 23:23:00,46.0,37.0,-100.00,SW,220,2.0,4.0,72,0.00,,,0.00,0.000000,,2013-09-24 05:23:00,
2013-09-23 23:34:00,46.0,37.0,-100.00,SW,220,2.0,4.0,72,0.00,,,0.00,0.000000,,2013-09-24 05:34:00,
2013-09-23 23:43:00,46.0,37.0,-100.00,SW,220,2.0,4.0,72,0.00,,,0.00,0.000000,,2013-09-24 05:43:00,
2013-09-23 23:53:00,46.0,37.0,-100.00,SW,220,2.0,4.0,72,0.00,,,0.00,0.000000,,2013-09-24 05:53:00,